ANA316 RJNT-RJTT
Flight info
| Callsign | ANA316 |
|---|---|
| Flight time | N/A |
| Altitude | 33000 |
| Route | HISUI Y31 GUSGI Y10 GODIN |
| Aircraft | A21N/M-SDE2E3FGHIRWXY/LB1 |
Departure
| Time | 2026-04-24 05:12 |
|---|---|
| Airport | Toyama Kitokito Airport (RJNT) |
Arrival
| Time | N/A |
|---|---|
| Airport | Tokyo Haneda International Airport (RJTT) |
| Time | Latitude | Longitude | Altitude | Speed | Heading |
|---|---|---|---|---|---|
| 2026-04-24 04:41 | 36.64408 | 137.18844 | 80 ft | 0 kts | 129° |
| 2026-04-24 05:04 | 36.64408 | 137.18843 | 80 ft | 1 kts | 129° |
| 2026-04-24 05:05 | 36.64422 | 137.18822 | 85 ft | 4 kts | 139° |
| 2026-04-24 05:05 | 36.64442 | 137.18803 | 84 ft | 4 kts | 135° |
| 2026-04-24 05:05 | 36.64463 | 137.18784 | 84 ft | 4 kts | 161° |
| 2026-04-24 05:05 | 36.64486 | 137.18782 | 83 ft | 2 kts | 194° |
| 2026-04-24 05:06 | 36.64492 | 137.18783 | 82 ft | 0 kts | 194° |
| 2026-04-24 05:09 | 36.64491 | 137.18783 | 80 ft | 1 kts | 194° |
| 2026-04-24 05:09 | 36.64476 | 137.18778 | 84 ft | 3 kts | 194° |
| 2026-04-24 05:09 | 36.64440 | 137.18767 | 83 ft | 7 kts | 194° |
| 2026-04-24 05:10 | 36.64405 | 137.18713 | 81 ft | 11 kts | 271° |
| 2026-04-24 05:10 | 36.64397 | 137.18611 | 81 ft | 14 kts | 221° |
| 2026-04-24 05:10 | 36.64288 | 137.18576 | 82 ft | 18 kts | 192° |
| 2026-04-24 05:10 | 36.64159 | 137.18538 | 83 ft | 20 kts | 193° |
| 2026-04-24 05:11 | 36.64034 | 137.18463 | 82 ft | 22 kts | 228° |
| 2026-04-24 05:11 | 36.64004 | 137.18491 | 82 ft | 9 kts | 32° |
| 2026-04-24 05:11 | 36.64026 | 137.18498 | 84 ft | 0 kts | 13° |
| 2026-04-24 05:11 | 36.64121 | 137.18526 | 83 ft | 51 kts | 13° |
| 2026-04-24 05:12 | 36.64795 | 137.18727 | 83 ft | 144 kts | 13° |
| 2026-04-24 05:12 | 36.65797 | 137.19022 | 1049 ft | 149 kts | 10° |
| 2026-04-24 05:12 | 36.66902 | 137.19063 | 2221 ft | 173 kts | 0° |
| 2026-04-24 05:12 | 36.68112 | 137.19109 | 2793 ft | 183 kts | 7° |
| 2026-04-24 05:13 | 36.70657 | 137.19308 | 3076 ft | 203 kts | 6° |
| 2026-04-24 05:13 | 36.72220 | 137.19407 | 3531 ft | 246 kts | 5° |
| 2026-04-24 05:13 | 36.73958 | 137.19517 | 4234 ft | 253 kts | 5° |
| 2026-04-24 05:14 | 36.75724 | 137.19652 | 5059 ft | 255 kts | 9° |
| 2026-04-24 05:14 | 36.77412 | 137.20308 | 5853 ft | 255 kts | 31° |
| 2026-04-24 05:14 | 36.78809 | 137.21659 | 6720 ft | 254 kts | 42° |
| 2026-04-24 05:14 | 36.80116 | 137.23136 | 7538 ft | 255 kts | 41° |
| 2026-04-24 05:15 | 36.81462 | 137.24649 | 8116 ft | 264 kts | 40° |
| 2026-04-24 05:15 | 36.82852 | 137.26191 | 8768 ft | 270 kts | 40° |
| 2026-04-24 05:15 | 36.84276 | 137.27760 | 9471 ft | 275 kts | 39° |
| 2026-04-24 05:15 | 36.85725 | 137.29352 | 10135 ft | 281 kts | 39° |
| 2026-04-24 05:16 | 36.87232 | 137.31006 | 10462 ft | 296 kts | 38° |
| 2026-04-24 05:16 | 36.88778 | 137.32700 | 10632 ft | 304 kts | 38° |
| 2026-04-24 05:16 | 36.90436 | 137.34516 | 10876 ft | 329 kts | 38° |
| 2026-04-24 05:16 | 36.92215 | 137.36464 | 11139 ft | 350 kts | 39° |
| 2026-04-24 05:17 | 36.94077 | 137.38517 | 11362 ft | 364 kts | 39° |
| 2026-04-24 05:17 | 36.96020 | 137.40656 | 11579 ft | 381 kts | 39° |
| 2026-04-24 05:17 | 36.97641 | 137.42440 | 11743 ft | 393 kts | 38° |
| 2026-04-24 05:18 | 36.99692 | 137.44705 | 11901 ft | 398 kts | 39° |
| 2026-04-24 05:18 | 37.01398 | 137.46603 | 11985 ft | 409 kts | 39° |
| 2026-04-24 05:18 | 37.01467 | 137.46681 | 11987 ft | 409 kts | 39° |
| 2026-04-24 05:19 | 37.02038 | 137.47318 | 12014 ft | 413 kts | 39° |
| 2026-04-24 05:19 | 37.03620 | 137.49093 | 12097 ft | 400 kts | 39° |
| 2026-04-24 05:19 | 37.05606 | 137.51346 | 12207 ft | 372 kts | 39° |
| 2026-04-24 05:19 | 37.07446 | 137.53466 | 12323 ft | 347 kts | 40° |
| 2026-04-24 05:20 | 37.09149 | 137.55459 | 12422 ft | 323 kts | 40° |
| 2026-04-24 05:20 | 37.10721 | 137.57334 | 12536 ft | 300 kts | 40° |
| 2026-04-24 05:20 | 37.12162 | 137.59086 | 12639 ft | 277 kts | 41° |
| 2026-04-24 05:20 | 37.13475 | 137.60718 | 12730 ft | 255 kts | 41° |
| 2026-04-24 05:21 | 37.14708 | 137.62285 | 12459 ft | 249 kts | 44° |
| 2026-04-24 05:21 | 37.15542 | 137.64280 | 12448 ft | 279 kts | 78° |
| 2026-04-24 05:21 | 37.15407 | 137.66798 | 12652 ft | 305 kts | 109° |
| 2026-04-24 05:21 | 37.14352 | 137.69199 | 12929 ft | 326 kts | 127° |
| 2026-04-24 05:22 | 37.12851 | 137.71444 | 13228 ft | 346 kts | 133° |
| 2026-04-24 05:22 | 37.11044 | 137.73558 | 13510 ft | 364 kts | 148° |
| 2026-04-24 05:22 | 37.08720 | 137.74948 | 13522 ft | 376 kts | 166° |
| 2026-04-24 05:22 | 37.06120 | 137.75368 | 13323 ft | 382 kts | 185° |
| 2026-04-24 05:23 | 37.03501 | 137.74731 | 13083 ft | 388 kts | 203° |
| 2026-04-24 05:23 | 37.01143 | 137.73086 | 12830 ft | 392 kts | 220° |
| 2026-04-24 05:23 | 36.99300 | 137.70620 | 12587 ft | 397 kts | 238° |
| 2026-04-24 05:23 | 36.97898 | 137.67565 | 12388 ft | 404 kts | 243° |
| 2026-04-24 05:24 | 36.96412 | 137.64542 | 12511 ft | 410 kts | 237° |
| 2026-04-24 05:24 | 36.94690 | 137.61700 | 12865 ft | 410 kts | 233° |
| 2026-04-24 05:24 | 36.92848 | 137.58970 | 13008 ft | 414 kts | 231° |
| 2026-04-24 05:24 | 36.90932 | 137.56234 | 12710 ft | 415 kts | 231° |
| 2026-04-24 05:25 | 36.89059 | 137.53605 | 12154 ft | 394 kts | 230° |
| 2026-04-24 05:25 | 36.87271 | 137.51108 | 11350 ft | 380 kts | 230° |
| 2026-04-24 05:25 | 36.85530 | 137.48664 | 10420 ft | 373 kts | 230° |
| 2026-04-24 05:25 | 36.83817 | 137.46255 | 9429 ft | 369 kts | 230° |
| 2026-04-24 05:26 | 36.82133 | 137.43890 | 8721 ft | 358 kts | 230° |
| 2026-04-24 05:26 | 36.80521 | 137.41636 | 8351 ft | 337 kts | 230° |
| 2026-04-24 05:26 | 36.79010 | 137.39520 | 8088 ft | 318 kts | 230° |
| 2026-04-24 05:26 | 36.77583 | 137.37517 | 7649 ft | 309 kts | 229° |
| 2026-04-24 05:27 | 36.76151 | 137.35512 | 7156 ft | 302 kts | 229° |
| 2026-04-24 05:27 | 36.74785 | 137.33599 | 6667 ft | 296 kts | 229° |
| 2026-04-24 05:27 | 36.73428 | 137.31698 | 6156 ft | 291 kts | 228° |
| 2026-04-24 05:27 | 36.72175 | 137.29714 | 5625 ft | 285 kts | 243° |
| 2026-04-24 05:28 | 36.71499 | 137.27472 | 5118 ft | 278 kts | 258° |
| 2026-04-24 05:28 | 36.71125 | 137.25103 | 4605 ft | 272 kts | 269° |
| 2026-04-24 05:28 | 36.71330 | 137.22848 | 4111 ft | 264 kts | 288° |
| 2026-04-24 05:28 | 36.71880 | 137.20634 | 3616 ft | 263 kts | 291° |
| 2026-04-24 05:29 | 36.72455 | 137.18503 | 3119 ft | 264 kts | 291° |
| 2026-04-24 05:29 | 36.73050 | 137.16335 | 2587 ft | 265 kts | 291° |
| 2026-04-24 05:29 | 36.73643 | 137.14175 | 2211 ft | 260 kts | 291° |
| 2026-04-24 05:29 | 36.73868 | 137.11980 | 1991 ft | 255 kts | 265° |
| 2026-04-24 05:30 | 36.73285 | 137.09979 | 1935 ft | 239 kts | 234° |
| 2026-04-24 05:30 | 36.72106 | 137.08686 | 1940 ft | 217 kts | 202° |
| 2026-04-24 05:30 | 36.70732 | 137.08383 | 2011 ft | 191 kts | 171° |
| 2026-04-24 05:30 | 36.69908 | 137.08604 | 1934 ft | 177 kts | 155° |
| 2026-04-24 05:31 | 36.68876 | 137.09372 | 1781 ft | 171 kts | 139° |
| 2026-04-24 05:31 | 36.67957 | 137.10259 | 1650 ft | 164 kts | 136° |
| 2026-04-24 05:31 | 36.67052 | 137.11049 | 1583 ft | 149 kts | 156° |
| 2026-04-24 05:31 | 36.66072 | 137.11227 | 1443 ft | 142 kts | 171° |
| 2026-04-24 05:32 | 36.65106 | 137.11415 | 1108 ft | 140 kts | 161° |
| 2026-04-24 05:32 | 36.64214 | 137.11987 | 1014 ft | 144 kts | 140° |
| 2026-04-24 05:32 | 36.63506 | 137.12887 | 981 ft | 146 kts | 128° |
| 2026-04-24 05:32 | 36.62850 | 137.13854 | 826 ft | 147 kts | 125° |
| 2026-04-24 05:33 | 36.62322 | 137.14911 | 743 ft | 142 kts | 109° |
| 2026-04-24 05:33 | 36.62042 | 137.16061 | 699 ft | 137 kts | 90° |
| 2026-04-24 05:33 | 36.62103 | 137.17224 | 620 ft | 133 kts | 63° |
| 2026-04-24 05:34 | 36.63555 | 137.18346 | 220 ft | 124 kts | 14° |
| 2026-04-24 05:34 | 36.64387 | 137.18603 | 82 ft | 115 kts | 14° |
| 2026-04-24 05:34 | 36.64886 | 137.18755 | 75 ft | 31 kts | 13° |
| 2026-04-24 05:34 | 36.65074 | 137.18811 | 82 ft | 29 kts | 13° |
| 2026-04-24 05:35 | 36.65272 | 137.18872 | 84 ft | 29 kts | 14° |
| 2026-04-24 05:35 | 36.65416 | 137.18918 | 85 ft | 16 kts | 12° |
| 2026-04-24 05:35 | 36.65532 | 137.18949 | 86 ft | 18 kts | 13° |
| 2026-04-24 05:35 | 36.65643 | 137.19022 | 84 ft | 17 kts | 41° |
| 2026-04-24 05:36 | 36.65676 | 137.18984 | 85 ft | 14 kts | 216° |
| 2026-04-24 05:36 | 36.65571 | 137.18961 | 85 ft | 17 kts | 188° |
| 2026-04-24 05:36 | 36.65450 | 137.18924 | 84 ft | 19 kts | 194° |
| 2026-04-24 05:36 | 36.65314 | 137.18882 | 85 ft | 21 kts | 193° |
| 2026-04-24 05:37 | 36.65168 | 137.18841 | 82 ft | 22 kts | 193° |
| 2026-04-24 05:37 | 36.65014 | 137.18795 | 82 ft | 23 kts | 194° |
| 2026-04-24 05:37 | 36.64851 | 137.18745 | 78 ft | 25 kts | 194° |
| 2026-04-24 05:37 | 36.64679 | 137.18692 | 68 ft | 26 kts | 194° |
| 2026-04-24 05:38 | 36.64548 | 137.18677 | 82 ft | 15 kts | 136° |
| 2026-04-24 05:38 | 36.64493 | 137.18781 | 83 ft | 9 kts | 167° |
| 2026-04-24 05:38 | 36.64429 | 137.18783 | 84 ft | 9 kts | 128° |
| 2026-04-24 05:38 | 36.64419 | 137.18824 | 80 ft | 0 kts | 101° |
| 2026-04-24 05:39 | 36.64417 | 137.18828 | 80 ft | 1 kts | 120° |
| 2026-04-24 05:39 | 36.64408 | 137.18844 | 85 ft | 1 kts | 127° |
| 2026-04-24 05:39 | 36.64407 | 137.18846 | 85 ft | 0 kts | 127° |